createdAt,value
2019-05-13T00:00:37.956Z,14.03
2019-05-13T00:03:08.252Z,14.04
2019-05-13T00:05:38.632Z,14.07
2019-05-13T00:08:09.060Z,14.04
2019-05-13T00:10:39.621Z,14.04
2019-05-13T00:13:09.982Z,14.00
2019-05-13T00:15:40.411Z,14.00
2019-05-13T00:18:10.729Z,13.95
2019-05-13T00:20:41.136Z,13.87
2019-05-13T00:23:11.452Z,13.89
2019-05-13T00:25:44.217Z,13.84
2019-05-13T00:28:14.748Z,13.79
2019-05-13T00:30:46.231Z,13.74
2019-05-13T00:33:16.705Z,13.75
2019-05-13T00:35:47.123Z,13.77
2019-05-13T00:38:17.509Z,13.75
2019-05-13T00:40:47.901Z,13.79
2019-05-13T00:43:18.658Z,13.84
2019-05-13T00:45:48.977Z,13.82
2019-05-13T00:48:19.337Z,13.88
2019-05-13T00:50:49.702Z,13.89
2019-05-13T00:53:20.036Z,13.93
2019-05-13T00:55:50.446Z,13.96
2019-05-13T00:58:20.889Z,13.94
2019-05-13T01:00:51.185Z,13.96
2019-05-13T01:03:21.502Z,13.97
2019-05-13T01:05:53.529Z,13.97
2019-05-13T01:08:25.316Z,14.01
2019-05-13T01:10:55.604Z,13.97
2019-05-13T01:13:26.005Z,13.98
2019-05-13T01:15:56.359Z,14.02
2019-05-13T01:18:26.715Z,14.00
2019-05-13T01:20:57.419Z,14.03
2019-05-13T01:23:27.837Z,13.99
2019-05-13T01:25:58.220Z,14.00
2019-05-13T01:28:31.065Z,14.04
2019-05-13T01:31:01.421Z,14.03
2019-05-13T01:33:31.765Z,14.01
2019-05-13T01:36:05.252Z,14.03
2019-05-13T01:38:35.375Z,14.04
2019-05-13T01:41:05.896Z,14.07
2019-05-13T01:43:36.431Z,14.07
2019-05-13T01:46:06.797Z,14.06
2019-05-13T01:48:37.120Z,14.08
2019-05-13T01:51:07.511Z,14.08
2019-05-13T01:53:37.893Z,14.05
2019-05-13T01:56:08.864Z,13.99
2019-05-13T01:58:39.310Z,14.04
2019-05-13T02:01:09.657Z,14.05
2019-05-13T02:03:39.977Z,14.06
2019-05-13T02:06:10.364Z,14.06
2019-05-13T02:08:41.071Z,14.04
2019-05-13T02:11:13.284Z,14.03
2019-05-13T02:13:44.700Z,13.98
2019-05-13T02:16:15.731Z,13.97
2019-05-13T02:18:46.095Z,13.95
2019-05-13T02:21:17.549Z,13.95
2019-05-13T02:23:47.862Z,13.91
2019-05-13T02:26:18.219Z,13.96
2019-05-13T02:28:48.643Z,13.99
2019-05-13T02:31:31.980Z,14.05
2019-05-13T02:33:53.070Z,14.11
2019-05-13T02:36:23.339Z,14.16
2019-05-13T02:38:53.779Z,14.22
2019-05-13T02:41:24.177Z,14.27
2019-05-13T02:43:54.673Z,14.27
2019-05-13T02:46:25.031Z,14.28
2019-05-13T02:48:55.367Z,14.28
2019-05-13T02:51:25.765Z,14.30
2019-05-13T02:53:56.133Z,14.26
2019-05-13T02:56:26.485Z,14.26
2019-05-13T02:58:56.914Z,14.26
2019-05-13T03:01:27.288Z,14.26
2019-05-13T03:03:57.675Z,14.27
2019-05-13T03:06:28.178Z,14.34
2019-05-13T03:08:58.663Z,14.35
2019-05-13T03:11:28.950Z,14.43
2019-05-13T03:13:59.359Z,14.39
2019-05-13T03:16:52.425Z,14.43
2019-05-13T03:19:22.922Z,14.48
2019-05-13T03:21:53.280Z,14.59
2019-05-13T03:24:23.832Z,14.58
2019-05-13T03:26:54.387Z,14.66
2019-05-13T03:29:24.678Z,14.66
2019-05-13T03:31:56.437Z,14.69
2019-05-13T03:34:27.882Z,14.68
2019-05-13T03:36:58.519Z,14.72
2019-05-13T03:39:33.202Z,14.74
2019-05-13T03:42:04.525Z,14.73
2019-05-13T03:44:35.675Z,14.75
2019-05-13T03:47:06.011Z,14.79
2019-05-13T03:49:37.678Z,14.78
2019-05-13T03:52:08.667Z,14.89
2019-05-13T03:54:39.342Z,14.96
2019-05-13T03:57:12.590Z,15.00
2019-05-13T03:59:43.741Z,14.99
2019-05-13T04:02:14.417Z,15.07
2019-05-13T04:04:44.729Z,15.06
2019-05-13T04:07:15.368Z,15.03
2019-05-13T04:09:46.103Z,14.97
2019-05-13T04:12:16.513Z,14.90
2019-05-13T04:14:47.286Z,14.94
2019-05-13T04:17:17.844Z,14.95
2019-05-13T04:19:48.299Z,15.11
2019-05-13T04:22:18.616Z,15.16
2019-05-13T04:24:52.753Z,15.24
2019-05-13T04:27:23.347Z,15.29
2019-05-13T04:29:54.302Z,15.38
2019-05-13T04:32:28.699Z,15.59
2019-05-13T04:34:57.360Z,16.18
2019-05-13T04:37:27.745Z,17.70
2019-05-13T04:39:58.950Z,18.94
2019-05-13T04:42:33.109Z,20.65
2019-05-13T04:45:03.144Z,20.88
2019-05-13T04:47:33.750Z,20.48
2019-05-13T04:50:04.114Z,19.65
2019-05-13T04:52:34.710Z,18.81
2019-05-13T04:55:05.173Z,17.86
2019-05-13T04:57:35.637Z,17.37
2019-05-13T05:00:07.181Z,17.11
2019-05-13T05:02:56.546Z,16.60
2019-05-13T05:05:46.247Z,16.51
2019-05-13T05:08:28.333Z,16.58
2019-05-13T05:11:15.246Z,16.37
2019-05-13T05:14:24.135Z,16.24
2019-05-13T05:17:35.129Z,16.31
2019-05-13T05:20:33.322Z,16.23
2019-05-13T05:23:46.651Z,16.15
2019-05-13T05:26:55.181Z,16.19
2019-05-13T05:29:32.517Z,16.41
2019-05-13T05:32:28.356Z,16.28
2019-05-13T05:35:52.003Z,16.32
2019-05-13T05:38:52.176Z,16.43
2019-05-13T05:41:25.376Z,17.01
2019-05-13T05:43:57.917Z,16.75
2019-05-13T05:46:32.306Z,16.52
2019-05-13T05:49:08.832Z,16.65
2019-05-13T05:51:41.902Z,17.10
2019-05-13T05:54:14.761Z,17.62
2019-05-13T05:56:45.761Z,17.52
2019-05-13T06:02:57.445Z,17.59
2019-05-13T06:05:28.433Z,18.30
2019-05-13T06:07:58.830Z,19.17
2019-05-13T06:10:45.799Z,20.51
2019-05-13T06:13:02.766Z,21.32
2019-05-13T06:15:33.855Z,22.31
2019-05-13T06:18:04.291Z,22.46
2019-05-13T06:20:34.658Z,22.61
2019-05-13T06:23:05.071Z,21.72
2019-05-13T06:25:35.427Z,22.90
2019-05-13T06:28:05.925Z,23.45
2019-05-13T06:30:36.447Z,24.05
2019-05-13T06:33:07.198Z,24.69
2019-05-13T06:35:37.990Z,24.63
2019-05-13T06:38:08.357Z,25.79
2019-05-13T06:40:38.665Z,26.31
2019-05-13T06:43:08.955Z,26.44
2019-05-13T06:45:39.382Z,26.64
2019-05-13T06:48:11.720Z,27.02
2019-05-13T06:50:41.875Z,27.54
2019-05-13T06:53:12.812Z,28.25
2019-05-13T06:55:43.175Z,28.91
2019-05-13T06:58:13.500Z,26.80
2019-05-13T07:00:43.939Z,26.65
2019-05-13T07:03:14.588Z,25.99
2019-05-13T07:05:45.800Z,25.58
2019-05-13T07:08:17.667Z,24.83
2019-05-13T07:10:48.010Z,25.53
2019-05-13T07:13:21.777Z,26.05
2019-05-13T07:15:52.287Z,25.70
2019-05-13T07:18:22.759Z,26.23
2019-05-13T07:20:53.278Z,26.62
2019-05-13T07:23:23.778Z,27.11
2019-05-13T07:25:54.076Z,27.82
2019-05-13T07:28:24.454Z,27.59
2019-05-13T07:30:54.830Z,27.35
2019-05-13T07:33:25.272Z,28.07
2019-05-13T07:35:58.545Z,27.23
2019-05-13T07:38:29.349Z,27.14
2019-05-13T07:41:04.215Z,26.58
2019-05-13T07:43:35.830Z,24.33
2019-05-13T07:46:06.257Z,24.74
2019-05-13T07:48:36.603Z,23.93
2019-05-13T07:51:07.050Z,23.58
2019-05-13T07:53:37.387Z,22.57
2019-05-13T07:56:07.709Z,21.80
2019-05-13T07:58:38.107Z,21.39
2019-05-13T08:01:08.480Z,20.77
2019-05-13T08:03:38.796Z,20.55
2019-05-13T08:06:11.120Z,20.41
2019-05-13T08:08:41.807Z,20.12
2019-05-13T08:11:12.963Z,19.76
2019-05-13T08:13:44.567Z,19.54
2019-05-13T08:16:15.180Z,19.38
2019-05-13T08:18:45.601Z,19.20
2019-05-13T08:21:15.975Z,19.07
2019-05-13T08:23:46.452Z,19.11
2019-05-13T08:26:17.267Z,19.31
2019-05-13T08:29:00.406Z,19.38
2019-05-13T08:31:21.640Z,19.56
2019-05-13T08:33:52.069Z,19.12
2019-05-13T08:36:23.524Z,18.93
2019-05-13T08:38:53.975Z,18.76
2019-05-13T08:41:24.603Z,18.74
2019-05-13T08:43:55.581Z,18.60
2019-05-13T08:46:26.197Z,18.63
2019-05-13T08:48:57.036Z,18.73
2019-05-13T08:51:32.307Z,18.93
2019-05-13T08:54:03.535Z,18.81
2019-05-13T08:56:33.971Z,18.65
2019-05-13T08:59:06.460Z,18.83
2019-05-13T09:01:36.886Z,18.87
2019-05-13T09:04:07.228Z,18.38
2019-05-13T09:06:37.574Z,18.04
2019-05-13T09:09:11.519Z,18.19
2019-05-13T09:11:42.285Z,18.35
2019-05-13T09:14:13.048Z,18.31
2019-05-13T09:16:43.520Z,18.30
2019-05-13T09:19:16.310Z,18.11
2019-05-13T09:21:46.026Z,18.02
2019-05-13T09:24:24.592Z,18.09
2019-05-13T09:26:48.459Z,18.09
2019-05-13T09:29:18.908Z,17.91
2019-05-13T09:31:51.768Z,17.83
2019-05-13T09:34:22.129Z,17.87
2019-05-13T09:36:52.664Z,17.96
2019-05-13T09:39:23.129Z,18.09
2019-05-13T09:41:53.563Z,18.23
2019-05-13T09:44:23.919Z,18.12
2019-05-13T09:46:54.431Z,18.04
2019-05-13T09:49:24.827Z,18.21
2019-05-13T09:51:55.113Z,18.34
2019-05-13T09:54:25.478Z,18.26
2019-05-13T09:56:55.848Z,18.17
2019-05-13T09:59:26.071Z,17.98
2019-05-13T10:01:56.282Z,17.92
2019-05-13T10:04:26.375Z,18.02
2019-05-13T10:06:56.672Z,18.12
2019-05-13T10:09:26.791Z,18.36
2019-05-13T10:11:56.892Z,18.58
2019-05-13T10:14:27.201Z,18.60
2019-05-13T10:16:57.441Z,18.68
2019-05-13T10:19:27.582Z,18.62
2019-05-13T10:21:57.889Z,18.67
2019-05-13T10:24:28.241Z,18.75
2019-05-13T10:26:58.415Z,18.62
2019-05-13T10:29:31.534Z,18.58
2019-05-13T10:32:02.630Z,18.47
2019-05-13T10:34:34.222Z,18.42
2019-05-13T10:37:05.797Z,18.39
2019-05-13T10:39:36.287Z,18.19
2019-05-13T10:42:06.629Z,18.02
2019-05-13T10:44:37.080Z,18.10
2019-05-13T10:47:07.495Z,18.02
2019-05-13T10:49:37.851Z,18.06
2019-05-13T10:52:08.654Z,18.13
2019-05-13T10:54:41.095Z,18.34
2019-05-13T10:57:13.713Z,18.55
2019-05-13T10:59:43.660Z,18.55
2019-05-13T11:02:14.291Z,18.73
2019-05-13T11:04:44.791Z,18.91
2019-05-13T11:07:15.246Z,18.94
2019-05-13T11:09:45.641Z,18.64
2019-05-13T11:12:16.006Z,18.63
2019-05-13T11:14:46.773Z,18.58
2019-05-13T11:17:23.279Z,18.74
2019-05-13T11:19:50.612Z,18.80
2019-05-13T11:22:22.467Z,18.64
2019-05-13T11:24:53.031Z,18.75
2019-05-13T11:27:23.635Z,18.73
2019-05-13T11:29:53.987Z,18.72
2019-05-13T11:32:24.299Z,18.90
2019-05-13T11:34:54.756Z,19.00
2019-05-13T11:37:25.470Z,18.95
2019-05-13T11:39:55.832Z,18.94
2019-05-13T11:42:26.312Z,18.82
2019-05-13T11:44:56.619Z,18.70
2019-05-13T11:47:27.339Z,18.67
2019-05-13T11:49:57.876Z,18.44
2019-05-13T11:52:28.402Z,18.24
2019-05-13T11:54:58.813Z,18.03
2019-05-13T11:57:31.044Z,18.05
2019-05-13T12:00:02.534Z,17.81
2019-05-13T12:02:33.424Z,17.85
2019-05-13T12:05:04.166Z,17.82
2019-05-13T12:07:34.765Z,17.67
2019-05-13T12:15:32.794Z,17.60
2019-05-13T12:17:52.354Z,17.73
2019-05-13T12:20:21.622Z,18.09
2019-05-13T12:22:52.139Z,18.31
2019-05-13T12:25:22.686Z,18.30
2019-05-13T12:27:53.095Z,18.49
2019-05-13T12:30:23.444Z,18.71
2019-05-13T12:32:53.740Z,18.98
2019-05-13T12:35:43.749Z,19.06
2019-05-13T12:38:14.050Z,19.16
2019-05-13T12:40:44.352Z,19.16
2019-05-13T12:43:14.904Z,19.38
2019-05-13T12:45:45.526Z,19.32
2019-05-13T12:48:15.915Z,19.33
2019-05-13T12:50:46.360Z,19.17
2019-05-13T12:53:16.734Z,18.85
2019-05-13T12:55:52.694Z,18.47
2019-05-13T12:58:19.385Z,18.32
2019-05-13T13:00:52.920Z,18.37
2019-05-13T13:03:23.143Z,18.18
2019-05-13T13:05:54.054Z,18.15
2019-05-13T13:10:56.539Z,17.86
2019-05-13T13:13:54.070Z,17.72
2019-05-13T13:16:03.238Z,17.63
2019-05-13T13:18:31.166Z,17.62
2019-05-13T13:21:06.978Z,17.68
2019-05-13T13:23:34.353Z,17.78
2019-05-13T13:26:13.716Z,17.59
2019-05-13T13:28:36.536Z,17.42
2019-05-13T13:31:06.766Z,17.34
2019-05-13T13:33:36.921Z,17.47
2019-05-13T13:36:07.078Z,17.65
2019-05-13T13:38:37.407Z,17.53
2019-05-13T13:41:07.651Z,17.46
2019-05-13T13:43:38.046Z,17.28
2019-05-13T13:48:43.721Z,17.31
2019-05-13T13:51:14.132Z,17.41
2019-05-13T13:53:45.031Z,17.49
2019-05-13T13:56:15.240Z,17.39
2019-05-13T13:58:45.464Z,17.25
2019-05-13T14:01:19.771Z,17.28
2019-05-13T14:03:47.641Z,17.33
2019-05-13T14:06:44.448Z,17.93
2019-05-13T14:07:12.875Z,17.34
2019-05-13T14:07:20.454Z,17.24
2019-05-13T14:08:51.933Z,17.31
2019-05-13T14:11:23.278Z,17.23
2019-05-13T14:13:55.588Z,17.22
2019-05-13T14:16:32.534Z,17.05
2019-05-13T14:18:58.000Z,16.82
2019-05-13T14:21:28.221Z,16.85
2019-05-13T14:23:58.241Z,16.70
2019-05-13T14:26:28.675Z,16.59
2019-05-13T14:28:58.999Z,16.48
2019-05-13T14:31:31.694Z,16.42
2019-05-13T14:34:03.653Z,16.49
2019-05-13T14:36:34.077Z,16.55
2019-05-13T14:39:05.310Z,16.54
2019-05-13T14:41:35.598Z,16.63
2019-05-13T14:44:05.899Z,16.59
2019-05-13T14:46:47.266Z,16.76
2019-05-13T14:49:08.212Z,16.83
2019-05-13T14:51:38.413Z,16.77
2019-05-13T14:54:08.654Z,16.90
2019-05-13T14:56:39.122Z,17.03
2019-05-13T14:59:11.675Z,17.16
2019-05-13T15:01:41.580Z,17.21
2019-05-13T15:04:12.364Z,16.88
2019-05-13T15:06:42.897Z,16.82
2019-05-13T15:09:13.062Z,16.69
2019-05-13T15:11:43.396Z,16.66
2019-05-13T15:14:13.511Z,16.56
2019-05-13T15:17:00.264Z,16.48
2019-05-13T15:19:15.659Z,16.46
2019-05-13T15:21:46.461Z,16.39
2019-05-13T15:24:16.829Z,16.39
2019-05-13T15:26:47.464Z,16.40
2019-05-13T15:29:18.140Z,16.28
2019-05-13T15:31:48.671Z,16.24
2019-05-13T15:34:18.855Z,16.26
2019-05-13T15:36:50.762Z,16.33
2019-05-13T15:39:20.980Z,16.35
2019-05-13T15:41:52.375Z,16.35
2019-05-13T15:44:23.181Z,16.27
2019-05-13T15:46:53.346Z,16.20
2019-05-13T15:49:23.407Z,16.07
2019-05-13T15:51:54.596Z,16.00
2019-05-13T15:54:24.780Z,15.83
2019-05-13T15:56:54.922Z,15.75
2019-05-13T15:59:25.043Z,15.79
2019-05-13T16:01:55.305Z,15.83
2019-05-13T16:04:25.478Z,15.85
2019-05-13T16:06:55.737Z,15.81
2019-05-13T16:09:25.897Z,15.83
2019-05-13T16:11:56.123Z,15.83
2019-05-13T16:14:26.405Z,15.88
2019-05-13T16:16:56.714Z,15.87
2019-05-13T16:19:27.235Z,15.87
2019-05-13T16:21:57.484Z,15.83
2019-05-13T16:24:27.770Z,15.84
2019-05-13T16:26:57.970Z,15.82
2019-05-13T16:29:28.130Z,15.85
2019-05-13T16:31:58.650Z,15.82
2019-05-13T16:34:31.725Z,15.78
2019-05-13T16:37:02.333Z,15.75
2019-05-13T16:39:32.927Z,15.71
2019-05-13T16:42:03.236Z,15.70
2019-05-13T16:44:33.543Z,15.68
2019-05-13T16:47:03.893Z,15.63
2019-05-13T16:49:34.154Z,15.59
2019-05-13T16:52:04.669Z,15.59
2019-05-13T16:54:34.894Z,15.47
2019-05-13T16:57:05.116Z,15.48
2019-05-13T16:59:35.362Z,15.47
2019-05-13T17:02:05.624Z,15.46
2019-05-13T17:04:36.779Z,15.39
2019-05-13T17:07:07.020Z,15.32
2019-05-13T17:09:37.177Z,15.29
2019-05-13T17:12:07.389Z,15.23
2019-05-13T17:14:37.454Z,15.27
2019-05-13T17:17:07.623Z,15.21
2019-05-13T17:19:37.815Z,15.16
2019-05-13T17:22:08.084Z,15.17
2019-05-13T17:24:38.185Z,15.16
2019-05-13T17:27:08.361Z,15.09
2019-05-13T17:29:38.538Z,15.13
2019-05-13T17:32:08.831Z,15.04
2019-05-13T17:34:39.374Z,15.04
2019-05-13T17:37:11.753Z,15.03
2019-05-13T17:39:41.713Z,15.03
2019-05-13T17:42:12.395Z,14.99
2019-05-13T17:44:46.344Z,15.01
2019-05-13T17:47:15.105Z,14.99
2019-05-13T17:49:45.345Z,14.93
2019-05-13T17:52:16.649Z,14.94
2019-05-13T17:54:47.241Z,14.98
2019-05-13T17:57:21.553Z,14.95
2019-05-13T17:59:52.250Z,14.88
2019-05-13T18:02:22.486Z,14.86
2019-05-13T18:04:52.583Z,14.82
2019-05-13T18:07:22.879Z,14.79
2019-05-13T18:09:53.156Z,14.81
2019-05-13T18:12:23.422Z,14.73
2019-05-13T18:14:53.740Z,14.66
2019-05-13T18:17:25.013Z,14.59
2019-05-13T18:19:55.145Z,14.53
2019-05-13T18:22:25.417Z,14.57
2019-05-13T18:24:55.602Z,14.53
2019-05-13T18:27:25.875Z,14.47
2019-05-13T18:29:56.137Z,14.47
2019-05-13T18:32:26.687Z,14.48
2019-05-13T18:34:56.955Z,14.51
2019-05-13T18:37:28.250Z,14.61
2019-05-13T18:39:58.447Z,14.65
2019-05-13T18:42:28.585Z,14.69
2019-05-13T18:44:58.841Z,14.70
2019-05-13T18:47:31.105Z,14.73
2019-05-13T18:50:02.372Z,14.78
2019-05-13T18:52:32.800Z,14.80
2019-05-13T18:55:08.022Z,14.79
2019-05-13T18:57:42.034Z,14.76
2019-05-13T19:00:12.484Z,14.56
2019-05-13T19:02:42.732Z,14.72
2019-05-13T19:05:13.756Z,14.68
2019-05-13T19:07:43.862Z,14.71
2019-05-13T19:10:14.070Z,14.73
2019-05-13T19:12:44.384Z,14.74
2019-05-13T19:15:14.782Z,14.77
2019-05-13T19:17:44.865Z,14.77
2019-05-13T19:20:15.650Z,14.78
2019-05-13T19:22:45.798Z,14.76
2019-05-13T19:25:45.593Z,14.75
2019-05-13T19:28:16.077Z,14.71
2019-05-13T19:30:46.265Z,14.70
2019-05-13T19:33:16.584Z,14.67
2019-05-13T19:35:46.995Z,14.68
2019-05-13T19:38:17.100Z,14.58
2019-05-13T19:40:47.285Z,14.45
2019-05-13T19:43:18.699Z,14.44
2019-05-13T19:45:49.096Z,14.44
2019-05-13T19:48:21.701Z,14.42
2019-05-13T19:50:52.140Z,14.37
2019-05-13T19:53:22.620Z,14.31
2019-05-13T19:55:52.892Z,14.27
2019-05-13T19:58:23.621Z,14.18
2019-05-13T20:00:53.898Z,14.18
2019-05-13T20:03:24.141Z,14.28
2019-05-13T20:05:54.460Z,14.27
2019-05-13T20:08:24.913Z,14.29
2019-05-13T20:10:55.165Z,14.35
2019-05-13T20:13:25.414Z,14.33
2019-05-13T20:15:55.842Z,14.37
2019-05-13T20:18:26.634Z,14.37
2019-05-13T20:20:56.955Z,14.38
2019-05-13T20:23:27.238Z,14.38
2019-05-13T20:25:57.879Z,14.38
2019-05-13T20:28:28.214Z,14.36
2019-05-13T20:30:58.595Z,14.34
2019-05-13T20:33:31.629Z,14.36
2019-05-13T20:36:01.697Z,14.29
2019-05-13T20:38:32.139Z,14.29
2019-05-13T20:41:02.369Z,14.31
2019-05-13T20:43:33.043Z,14.30
2019-05-13T20:46:03.392Z,14.26
2019-05-13T20:48:33.674Z,14.30
2019-05-13T20:51:03.942Z,14.26
2019-05-13T20:53:34.253Z,14.29
2019-05-13T20:56:04.750Z,14.33
2019-05-13T20:58:36.106Z,14.22
2019-05-13T21:01:06.688Z,14.23
2019-05-13T21:03:37.098Z,14.24
2019-05-13T21:06:07.352Z,14.29
2019-05-13T21:08:37.714Z,14.39
2019-05-13T21:11:08.025Z,14.43
2019-05-13T21:13:38.432Z,14.46
2019-05-13T21:16:08.797Z,14.51
2019-05-13T21:18:41.835Z,14.52
2019-05-13T21:21:11.807Z,14.52
2019-05-13T21:23:42.336Z,14.53
2019-05-13T21:26:15.417Z,14.54
2019-05-13T21:28:44.780Z,14.52
2019-05-13T21:31:15.079Z,14.39
2019-05-13T21:33:45.442Z,14.42
2019-05-13T21:36:16.008Z,14.47
2019-05-13T21:38:46.631Z,14.54
2019-05-13T21:41:17.608Z,14.61
2019-05-13T21:43:47.690Z,14.68
2019-05-13T21:46:17.948Z,14.67
2019-05-13T21:48:48.278Z,14.68
2019-05-13T21:51:18.587Z,14.73
2019-05-13T21:53:48.905Z,14.80
2019-05-13T21:56:22.916Z,14.84
2019-05-13T21:58:52.133Z,14.85
2019-05-13T22:01:23.389Z,14.86
2019-05-13T22:03:53.865Z,14.85
2019-05-13T22:06:24.121Z,14.89
2019-05-13T22:08:54.372Z,14.94
2019-05-13T22:11:24.558Z,14.98
2019-05-13T22:13:54.675Z,15.02
2019-05-13T22:16:25.067Z,15.08
2019-05-13T22:18:55.269Z,15.12
2019-05-13T22:21:25.498Z,15.10
2019-05-13T22:23:55.672Z,15.13
2019-05-13T22:26:25.903Z,15.14
2019-05-13T22:28:55.969Z,15.14
2019-05-13T22:31:26.272Z,15.10
2019-05-13T22:33:56.571Z,15.07
2019-05-13T22:36:26.779Z,15.08
2019-05-13T22:38:57.027Z,15.09
2019-05-13T22:41:27.229Z,15.11
2019-05-13T22:43:58.879Z,15.10
2019-05-13T22:46:31.941Z,15.05
2019-05-13T22:49:01.600Z,15.11
2019-05-13T22:51:42.730Z,15.10
2019-05-13T22:54:12.943Z,15.12
2019-05-13T22:56:43.170Z,15.12
2019-05-13T22:59:13.938Z,15.12
2019-05-13T23:01:45.088Z,15.08
2019-05-13T23:04:15.268Z,15.11
2019-05-13T23:06:45.351Z,15.12
2019-05-13T23:09:15.546Z,15.13
2019-05-13T23:11:45.744Z,15.10
2019-05-13T23:14:15.993Z,15.09
2019-05-13T23:16:46.310Z,15.13
2019-05-13T23:19:16.623Z,15.16
2019-05-13T23:21:46.913Z,15.20
2019-05-13T23:24:16.988Z,15.21
2019-05-13T23:26:47.171Z,15.19
2019-05-13T23:29:17.524Z,15.22
2019-05-13T23:31:47.773Z,15.18
2019-05-13T23:34:18.418Z,15.22
2019-05-13T23:36:48.766Z,15.24
2019-05-13T23:39:19.025Z,15.26
2019-05-13T23:41:51.994Z,15.21
2019-05-13T23:44:27.679Z,15.21
2019-05-13T23:46:54.087Z,15.17
2019-05-13T23:49:24.641Z,15.20
2019-05-13T23:51:55.112Z,15.21
2019-05-13T23:54:25.426Z,15.23
2019-05-13T23:56:55.737Z,15.17
2019-05-13T23:59:26.073Z,15.08
